createdAt,value
2018-06-18T00:00:20.706Z,14.03
2018-06-18T00:02:49.206Z,14.01
2018-06-18T00:05:17.806Z,13.98
2018-06-18T00:07:46.389Z,13.99
2018-06-18T00:10:14.972Z,13.96
2018-06-18T00:12:43.499Z,13.95
2018-06-18T00:15:12.137Z,13.97
2018-06-18T00:17:40.720Z,13.95
2018-06-18T00:20:09.250Z,13.93
2018-06-18T00:22:37.887Z,13.88
2018-06-18T00:25:06.469Z,13.82
2018-06-18T00:27:35.102Z,13.81
2018-06-18T00:30:03.667Z,13.79
2018-06-18T00:32:32.155Z,13.77
2018-06-18T00:35:00.903Z,13.75
2018-06-18T00:37:29.534Z,13.72
2018-06-18T00:39:58.067Z,13.75
2018-06-18T00:42:26.578Z,13.76
2018-06-18T00:44:55.129Z,13.82
2018-06-18T00:47:23.664Z,13.87
2018-06-18T00:49:52.233Z,13.91
2018-06-18T00:52:20.706Z,13.96
2018-06-18T00:54:49.366Z,13.99
2018-06-18T00:57:17.947Z,14.04
2018-06-18T00:59:46.450Z,14.06
2018-06-18T01:02:14.947Z,14.07
2018-06-18T01:04:43.535Z,14.09
2018-06-18T01:07:12.176Z,14.11
2018-06-18T01:09:40.794Z,14.11
2018-06-18T01:12:09.338Z,14.13
2018-06-18T01:14:37.923Z,14.14
2018-06-18T01:17:06.430Z,14.14
2018-06-18T01:19:34.930Z,14.14
2018-06-18T01:22:03.474Z,14.15
2018-06-18T01:24:41.164Z,14.15
2018-06-18T01:27:09.686Z,14.15
2018-06-18T01:29:38.329Z,14.14
2018-06-18T01:32:06.913Z,14.14
2018-06-18T01:34:35.394Z,14.14
2018-06-18T01:37:03.974Z,14.14
2018-06-18T01:39:32.469Z,14.14
2018-06-18T01:42:00.967Z,14.15
2018-06-18T01:44:29.506Z,14.17
2018-06-18T01:46:57.996Z,14.16
2018-06-18T01:49:26.684Z,14.15
2018-06-18T01:51:55.266Z,14.14
2018-06-18T01:54:23.950Z,14.14
2018-06-18T01:56:52.641Z,14.15
2018-06-18T01:59:21.262Z,14.15
2018-06-18T02:01:49.851Z,14.16
2018-06-18T02:04:18.446Z,14.19
2018-06-18T02:06:46.962Z,14.19
2018-06-18T02:09:15.554Z,14.18
2018-06-18T02:11:44.134Z,14.19
2018-06-18T02:14:12.705Z,14.18
2018-06-18T02:16:41.216Z,14.17
2018-06-18T02:19:09.883Z,14.19
2018-06-18T02:21:38.915Z,14.20
2018-06-18T02:24:07.602Z,14.19
2018-06-18T02:26:36.142Z,14.21
2018-06-18T02:29:10.045Z,14.22
2018-06-18T02:31:43.958Z,14.23
2018-06-18T02:34:17.656Z,14.24
2018-06-18T02:36:51.568Z,14.25
2018-06-18T02:39:20.153Z,14.24
2018-06-18T02:41:48.736Z,14.24
2018-06-18T02:44:17.234Z,14.23
2018-06-18T02:46:45.903Z,14.22
2018-06-18T02:49:14.430Z,14.21
2018-06-18T02:51:43.140Z,14.24
2018-06-18T02:54:11.704Z,14.21
2018-06-18T02:56:50.084Z,14.21
2018-06-18T02:59:18.994Z,14.21
2018-06-18T03:01:47.578Z,14.21
2018-06-18T03:04:16.220Z,14.21
2018-06-18T03:06:44.803Z,14.21
2018-06-18T03:09:13.430Z,14.22
2018-06-18T03:11:42.010Z,14.21
2018-06-18T03:14:10.966Z,14.21
2018-06-18T03:16:39.546Z,14.22
2018-06-18T03:19:13.442Z,14.22
2018-06-18T03:21:47.051Z,14.22
2018-06-18T03:24:20.756Z,14.21
2018-06-18T03:26:54.487Z,14.22
2018-06-18T03:29:26.106Z,14.20
2018-06-18T03:31:56.512Z,14.21
2018-06-18T03:34:25.224Z,14.22
2018-06-18T03:36:54.315Z,14.22
2018-06-18T03:39:22.964Z,14.24
2018-06-18T03:41:52.507Z,14.20
2018-06-18T03:44:34.710Z,14.20
2018-06-18T03:47:14.002Z,14.20
2018-06-18T03:49:42.628Z,14.19
2018-06-18T03:52:11.211Z,14.19
2018-06-18T03:54:39.739Z,14.16
2018-06-18T03:57:08.274Z,14.18
2018-06-18T03:59:36.814Z,14.20
2018-06-18T04:02:19.634Z,14.24
2018-06-18T04:04:56.352Z,14.24
2018-06-18T04:07:30.868Z,14.23
2018-06-18T04:10:04.630Z,14.27
2018-06-18T04:12:33.217Z,14.28
2018-06-18T04:15:01.840Z,14.30
2018-06-18T04:17:30.525Z,14.29
2018-06-18T04:19:59.107Z,14.31
2018-06-18T04:22:27.658Z,14.30
2018-06-18T04:24:56.274Z,14.32
2018-06-18T04:27:24.965Z,14.35
2018-06-18T04:29:53.442Z,14.37
2018-06-18T04:32:22.123Z,14.38
2018-06-18T04:34:57.470Z,14.40
2018-06-18T04:37:26.073Z,14.45
2018-06-18T04:39:54.630Z,14.47
2018-06-18T04:42:28.539Z,14.51
2018-06-18T04:45:02.344Z,14.54
2018-06-18T04:47:36.148Z,14.59
2018-06-18T04:50:09.955Z,14.63
2018-06-18T04:52:38.639Z,14.64
2018-06-18T04:55:07.230Z,14.70
2018-06-18T04:57:35.726Z,14.78
2018-06-18T05:00:19.238Z,14.83
2018-06-18T05:02:47.734Z,14.89
2018-06-18T05:05:16.402Z,15.00
2018-06-18T05:07:46.921Z,15.08
2018-06-18T05:10:24.115Z,15.19
2018-06-18T05:12:53.087Z,15.25
2018-06-18T05:15:24.422Z,15.21
2018-06-18T05:17:52.946Z,15.22
2018-06-18T05:20:21.628Z,15.21
2018-06-18T05:22:50.229Z,15.21
2018-06-18T05:25:18.757Z,15.25
2018-06-18T05:27:47.286Z,15.35
2018-06-18T05:30:18.923Z,15.40
2018-06-18T05:32:47.612Z,15.43
2018-06-18T05:35:16.134Z,15.38
2018-06-18T05:37:48.766Z,15.30
2018-06-18T05:40:17.657Z,15.23
2018-06-18T05:42:46.178Z,15.25
2018-06-18T05:45:14.823Z,15.32
2018-06-18T05:47:43.335Z,15.42
2018-06-18T05:50:11.942Z,15.45
2018-06-18T05:52:40.572Z,15.52
2018-06-18T05:55:09.094Z,15.52
2018-06-18T05:57:37.654Z,15.58
2018-06-18T06:00:07.139Z,15.62
2018-06-18T06:02:35.666Z,15.69
2018-06-18T06:05:04.259Z,15.75
2018-06-18T06:07:32.934Z,15.75
2018-06-18T06:10:03.014Z,15.71
2018-06-18T06:12:31.690Z,15.66
2018-06-18T06:15:00.275Z,15.66
2018-06-18T06:17:28.857Z,15.64
2018-06-18T06:19:57.542Z,15.62
2018-06-18T06:22:26.238Z,15.63
2018-06-18T06:24:54.946Z,15.37
2018-06-18T06:27:23.598Z,15.69
2018-06-18T06:29:52.283Z,15.81
2018-06-18T06:32:20.839Z,15.88
2018-06-18T06:34:54.781Z,15.97
2018-06-18T06:37:23.443Z,16.16
2018-06-18T06:39:51.974Z,16.26
2018-06-18T06:42:20.586Z,16.35
2018-06-18T06:44:49.195Z,16.53
2018-06-18T06:47:17.729Z,16.81
2018-06-18T06:49:46.273Z,17.07
2018-06-18T06:52:14.853Z,16.91
2018-06-18T06:54:43.346Z,16.87
2018-06-18T06:57:12.020Z,16.98
2018-06-18T06:59:40.602Z,17.14
2018-06-18T07:02:09.288Z,17.25
2018-06-18T07:04:37.770Z,17.16
2018-06-18T07:07:06.350Z,17.09
2018-06-18T07:09:34.912Z,17.10
2018-06-18T07:12:03.523Z,17.02
2018-06-18T07:14:32.049Z,16.89
2018-06-18T07:17:00.643Z,16.80
2018-06-18T07:19:29.266Z,16.74
2018-06-18T07:21:57.796Z,16.80
2018-06-18T07:24:26.382Z,16.87
2018-06-18T07:26:55.116Z,16.95
2018-06-18T07:29:23.801Z,16.91
2018-06-18T07:31:52.436Z,16.97
2018-06-18T07:34:21.007Z,17.13
2018-06-18T07:36:49.558Z,17.29
2018-06-18T07:39:18.338Z,17.36
2018-06-18T07:41:47.023Z,17.46
2018-06-18T07:44:15.558Z,17.49
2018-06-18T07:46:44.094Z,17.42
2018-06-18T07:49:12.672Z,17.40
2018-06-18T07:51:41.316Z,17.57
2018-06-18T07:54:10.040Z,17.75
2018-06-18T07:56:38.670Z,17.78
2018-06-18T07:59:07.251Z,17.84
2018-06-18T08:01:35.834Z,17.95
2018-06-18T08:04:04.410Z,18.07
2018-06-18T08:06:33.020Z,18.18
2018-06-18T08:09:01.537Z,18.29
2018-06-18T08:11:30.034Z,18.18
2018-06-18T08:13:58.602Z,18.08
2018-06-18T08:16:27.131Z,18.02
2018-06-18T08:18:55.973Z,17.97
2018-06-18T08:21:24.478Z,17.98
2018-06-18T08:23:53.067Z,18.17
2018-06-18T08:26:21.666Z,18.42
2018-06-18T08:28:50.254Z,18.72
2018-06-18T08:31:18.889Z,18.84
2018-06-18T08:33:47.418Z,18.94
2018-06-18T08:36:16.119Z,19.12
2018-06-18T08:38:44.639Z,18.96
2018-06-18T08:41:13.222Z,18.78
2018-06-18T08:43:41.884Z,18.77
2018-06-18T08:46:10.486Z,18.80
2018-06-18T08:48:44.394Z,18.78
2018-06-18T08:51:18.098Z,18.50
2018-06-18T08:53:51.863Z,18.29
2018-06-18T08:56:25.706Z,18.44
2018-06-18T08:58:59.718Z,18.43
2018-06-18T09:01:34.767Z,18.18
2018-06-18T09:04:06.403Z,18.23
2018-06-18T09:06:35.038Z,18.37
2018-06-18T09:09:03.824Z,18.36
2018-06-18T09:11:32.461Z,18.35
2018-06-18T09:14:00.982Z,18.20
2018-06-18T09:16:29.566Z,18.21
2018-06-18T09:18:58.088Z,18.46
2018-06-18T09:21:26.681Z,18.65
2018-06-18T09:23:55.313Z,18.83
2018-06-18T09:26:23.898Z,18.83
2018-06-18T09:28:52.438Z,18.95
2018-06-18T09:31:21.023Z,19.17
2018-06-18T09:33:49.605Z,19.34
2018-06-18T09:36:18.122Z,19.44
2018-06-18T09:38:46.682Z,19.71
2018-06-18T09:41:15.352Z,19.59
2018-06-18T09:43:43.901Z,19.57
2018-06-18T09:46:12.523Z,19.55
2018-06-18T09:48:46.182Z,19.63
2018-06-18T09:51:19.887Z,19.67
2018-06-18T09:53:53.738Z,19.69
2018-06-18T09:56:27.536Z,19.82
2018-06-18T09:59:01.280Z,19.65
2018-06-18T10:01:30.946Z,19.60
2018-06-18T10:04:00.310Z,19.58
2018-06-18T10:06:29.967Z,19.72
2018-06-18T10:09:02.407Z,19.70
2018-06-18T10:11:31.114Z,19.85
2018-06-18T10:13:59.595Z,19.80
2018-06-18T10:16:28.285Z,19.74
2018-06-18T10:18:56.874Z,19.60
2018-06-18T10:21:25.486Z,19.57
2018-06-18T10:23:53.999Z,19.39
2018-06-18T10:26:22.615Z,19.30
2018-06-18T10:28:51.197Z,19.23
2018-06-18T10:31:19.985Z,19.52
2018-06-18T10:33:53.878Z,19.59
2018-06-18T10:36:27.666Z,19.83
2018-06-18T10:39:01.295Z,19.98
2018-06-18T10:42:33.162Z,20.15
2018-06-18T10:45:01.760Z,20.24
2018-06-18T10:47:30.429Z,20.12
2018-06-18T10:49:58.962Z,20.22
2018-06-18T10:52:27.552Z,20.25
2018-06-18T10:54:56.180Z,20.18
2018-06-18T10:57:24.742Z,20.34
2018-06-18T10:59:53.245Z,20.58
2018-06-18T11:02:21.877Z,20.48
2018-06-18T11:04:55.834Z,20.31
2018-06-18T11:07:24.419Z,20.20
2018-06-18T11:09:53.102Z,19.99
2018-06-18T11:12:21.687Z,20.14
2018-06-18T11:14:50.211Z,20.13
2018-06-18T11:17:24.414Z,20.18
2018-06-18T11:19:57.691Z,20.35
2018-06-18T11:22:31.580Z,20.53
2018-06-18T11:25:05.421Z,20.49
2018-06-18T11:27:33.914Z,20.37
2018-06-18T11:30:02.603Z,20.46
2018-06-18T11:32:31.303Z,20.45
2018-06-18T11:34:59.852Z,20.54
2018-06-18T11:37:28.366Z,20.52
2018-06-18T11:39:57.014Z,20.40
2018-06-18T11:42:25.673Z,20.14
2018-06-18T11:44:54.283Z,20.12
2018-06-18T11:47:24.076Z,20.02
2018-06-18T11:49:52.653Z,19.94
2018-06-18T11:52:21.163Z,19.84
2018-06-18T11:54:50.590Z,19.78
2018-06-18T11:57:19.535Z,19.74
2018-06-18T11:59:53.637Z,19.66
2018-06-18T12:02:27.719Z,19.76
2018-06-18T12:05:02.134Z,19.83
2018-06-18T12:07:35.823Z,19.81
2018-06-18T12:10:04.557Z,19.83
2018-06-18T12:12:33.079Z,19.88
2018-06-18T12:15:01.689Z,19.84
2018-06-18T12:17:30.353Z,19.87
2018-06-18T12:19:59.506Z,20.01
2018-06-18T12:22:28.699Z,20.14
2018-06-18T12:24:57.998Z,20.27
2018-06-18T12:27:29.437Z,20.20
2018-06-18T12:29:58.135Z,20.16
2018-06-18T12:32:26.996Z,20.12
2018-06-18T12:34:55.722Z,20.05
2018-06-18T12:37:24.502Z,20.08
2018-06-18T12:39:53.350Z,20.13
2018-06-18T12:42:23.483Z,20.20
2018-06-18T12:44:57.842Z,20.07
2018-06-18T12:47:31.712Z,20.03
2018-06-18T12:50:07.458Z,19.99
2018-06-18T12:52:41.237Z,19.99
2018-06-18T12:55:15.146Z,19.92
2018-06-18T12:57:44.605Z,19.73
2018-06-18T13:00:14.749Z,19.58
2018-06-18T13:02:47.474Z,19.48
2018-06-18T13:05:16.082Z,19.27
2018-06-18T13:07:45.103Z,19.07
2018-06-18T13:10:14.481Z,18.92
2018-06-18T13:12:43.170Z,18.91
2018-06-18T13:15:11.899Z,18.80
2018-06-18T13:17:41.793Z,18.80
2018-06-18T13:20:10.899Z,18.70
2018-06-18T13:22:39.540Z,18.60
2018-06-18T13:25:08.773Z,18.59
2018-06-18T13:27:42.752Z,18.52
2018-06-18T13:30:11.387Z,18.46
2018-06-18T13:32:41.436Z,18.39
2018-06-18T13:35:10.182Z,18.37
2018-06-18T13:37:43.912Z,18.28
2018-06-18T13:40:17.724Z,18.22
2018-06-18T13:42:51.662Z,18.11
2018-06-18T13:45:25.587Z,18.01
2018-06-18T13:48:00.279Z,18.00
2018-06-18T13:50:30.409Z,17.95
2018-06-18T13:52:59.619Z,17.85
2018-06-18T13:55:28.799Z,17.78
2018-06-18T13:57:57.560Z,17.66
2018-06-18T14:00:27.060Z,17.56
2018-06-18T14:02:55.677Z,17.57
2018-06-18T14:05:26.518Z,17.56
2018-06-18T14:07:55.629Z,17.54
2018-06-18T14:10:24.343Z,17.50
2018-06-18T14:12:53.722Z,17.48
2018-06-18T14:15:23.582Z,17.48
2018-06-18T14:17:52.295Z,17.42
2018-06-18T14:20:25.367Z,17.33
2018-06-18T14:22:54.957Z,17.22
2018-06-18T14:25:23.968Z,17.26
2018-06-18T14:27:53.534Z,17.26
2018-06-18T14:30:27.292Z,17.28
2018-06-18T14:33:01.118Z,17.33
2018-06-18T14:35:34.848Z,17.30
2018-06-18T14:38:08.605Z,17.32
2018-06-18T14:40:37.434Z,17.30
2018-06-18T14:43:06.662Z,17.30
2018-06-18T14:45:35.334Z,17.28
2018-06-18T14:48:03.838Z,17.30
2018-06-18T14:50:32.830Z,17.36
2018-06-18T14:53:02.459Z,17.45
2018-06-18T14:55:31.011Z,17.50
2018-06-18T14:58:00.512Z,17.50
2018-06-18T15:00:31.215Z,17.50
2018-06-18T15:03:00.423Z,17.47
2018-06-18T15:05:32.732Z,17.45
2018-06-18T15:08:02.249Z,17.42
2018-06-18T15:10:36.156Z,17.37
2018-06-18T15:13:07.430Z,17.39
2018-06-18T15:15:41.217Z,17.32
2018-06-18T15:18:09.948Z,17.33
2018-06-18T15:20:38.607Z,17.33
2018-06-18T15:23:08.323Z,17.30
2018-06-18T15:25:44.906Z,17.30
2018-06-18T15:28:13.433Z,17.15
2018-06-18T15:30:41.974Z,17.13
2018-06-18T15:33:11.117Z,17.06
2018-06-18T15:35:39.746Z,17.04
2018-06-18T15:38:08.399Z,17.00
2018-06-18T15:40:36.864Z,16.94
2018-06-18T15:43:05.551Z,16.92
2018-06-18T15:45:34.098Z,16.92
2018-06-18T15:48:02.716Z,16.90
2018-06-18T15:50:31.337Z,16.90
2018-06-18T15:52:59.922Z,16.85
2018-06-18T15:55:28.554Z,16.92
2018-06-18T15:57:57.153Z,16.91
2018-06-18T16:00:26.197Z,16.92
2018-06-18T16:02:54.828Z,16.93
2018-06-18T16:05:23.824Z,16.93
2018-06-18T16:07:52.510Z,16.90
2018-06-18T16:10:21.296Z,16.86
2018-06-18T16:12:50.859Z,16.82
2018-06-18T16:15:19.532Z,16.71
2018-06-18T16:17:48.083Z,16.66
2018-06-18T16:20:16.674Z,16.62
2018-06-18T16:22:45.254Z,16.59
2018-06-18T16:25:13.843Z,16.60
2018-06-18T16:27:43.122Z,16.54
2018-06-18T16:30:11.650Z,16.56
2018-06-18T16:32:40.356Z,16.56
2018-06-18T16:35:09.072Z,16.57
2018-06-18T16:37:37.759Z,16.59
2018-06-18T16:40:06.445Z,16.62
2018-06-18T16:42:35.124Z,16.65
2018-06-18T16:45:04.324Z,16.55
2018-06-18T16:47:34.484Z,16.65
2018-06-18T16:50:03.323Z,16.66
2018-06-18T16:52:31.953Z,16.70
2018-06-18T16:55:00.599Z,16.70
2018-06-18T16:57:29.488Z,16.75
2018-06-18T16:59:57.999Z,16.78
2018-06-18T17:02:27.633Z,16.77
2018-06-18T17:04:59.335Z,16.82
2018-06-18T17:07:29.303Z,16.86
2018-06-18T17:09:57.884Z,16.87
2018-06-18T17:12:27.393Z,16.91
2018-06-18T17:14:56.670Z,16.93
2018-06-18T17:17:25.221Z,16.93
2018-06-18T17:19:54.925Z,16.94
2018-06-18T17:22:23.663Z,16.97
2018-06-18T17:24:53.533Z,16.96
2018-06-18T17:27:22.620Z,16.98
2018-06-18T17:29:51.408Z,16.74
2018-06-18T17:32:19.995Z,17.01
2018-06-18T17:34:49.802Z,17.02
2018-06-18T17:37:18.897Z,17.01
2018-06-18T17:39:47.622Z,17.00
2018-06-18T17:42:16.925Z,16.98
2018-06-18T17:44:45.554Z,17.00
2018-06-18T17:47:14.765Z,16.99
2018-06-18T17:49:43.378Z,17.01
2018-06-18T17:52:12.086Z,17.00
2018-06-18T17:54:40.822Z,17.00
2018-06-18T17:57:09.458Z,17.03
2018-06-18T17:59:38.242Z,17.02
2018-06-18T18:02:06.901Z,17.02
2018-06-18T18:04:36.526Z,16.99
2018-06-18T18:07:05.171Z,17.00
2018-06-18T18:09:33.664Z,17.02
2018-06-18T18:12:02.290Z,17.02
2018-06-18T18:14:31.080Z,17.01
2018-06-18T18:17:00.325Z,16.98
2018-06-18T18:19:29.642Z,16.99
2018-06-18T18:21:58.258Z,16.98
2018-06-18T18:24:27.194Z,16.93
2018-06-18T18:26:55.880Z,16.88
2018-06-18T18:29:24.570Z,16.80
2018-06-18T18:31:53.251Z,16.74
2018-06-18T18:34:24.331Z,16.72
2018-06-18T18:36:53.755Z,16.73
2018-06-18T18:39:22.369Z,16.64
2018-06-18T18:41:50.962Z,16.60
2018-06-18T18:44:19.648Z,16.66
2018-06-18T18:46:48.334Z,16.64
2018-06-18T18:49:17.020Z,16.60
2018-06-18T18:51:47.036Z,16.59
2018-06-18T18:54:33.147Z,16.58
2018-06-18T18:57:12.911Z,16.52
2018-06-18T18:59:43.970Z,16.51
2018-06-18T19:02:12.618Z,16.49
2018-06-18T19:04:51.992Z,16.19
2018-06-18T19:07:40.801Z,16.51
2018-06-18T19:10:19.703Z,16.21
2018-06-18T19:12:48.787Z,16.47
2018-06-18T19:15:17.393Z,16.46
2018-06-18T19:17:46.030Z,16.45
2018-06-18T19:20:19.890Z,16.43
2018-06-18T19:22:48.406Z,16.41
2018-06-18T19:25:16.998Z,16.39
2018-06-18T19:27:47.271Z,16.40
2018-06-18T19:30:16.650Z,16.39
2018-06-18T19:32:45.667Z,16.36
2018-06-18T19:35:14.451Z,16.37
2018-06-18T19:37:43.003Z,16.28
2018-06-18T19:40:11.636Z,16.32
2018-06-18T19:42:40.331Z,16.32
2018-06-18T19:45:11.323Z,16.31
2018-06-18T19:47:48.080Z,16.27
2018-06-18T19:50:17.317Z,16.27
2018-06-18T19:52:45.900Z,16.27
2018-06-18T19:55:17.174Z,16.22
2018-06-18T19:57:45.831Z,16.20
2018-06-18T20:00:14.515Z,16.17
2018-06-18T20:02:43.203Z,16.18
2018-06-18T20:05:13.116Z,16.15
2018-06-18T20:07:54.150Z,16.14
2018-06-18T20:10:23.858Z,16.16
2018-06-18T20:12:52.484Z,16.14
2018-06-18T20:15:21.034Z,16.12
2018-06-18T20:17:49.630Z,16.09
2018-06-18T20:20:18.162Z,16.06
2018-06-18T20:22:48.859Z,16.00
2018-06-18T20:25:19.970Z,16.01
2018-06-18T20:27:48.539Z,16.01
2018-06-18T20:30:18.092Z,15.96
2018-06-18T20:32:46.631Z,16.01
2018-06-18T20:35:22.941Z,16.01
2018-06-18T20:37:51.681Z,16.00
2018-06-18T20:40:20.311Z,16.00
2018-06-18T20:42:48.890Z,15.99
2018-06-18T20:45:17.577Z,15.98
2018-06-18T20:47:47.222Z,15.99
2018-06-18T20:50:15.818Z,15.97
2018-06-18T20:52:44.657Z,15.96
2018-06-18T20:55:13.294Z,15.98
2018-06-18T20:57:41.994Z,15.95
2018-06-18T21:00:11.530Z,15.95
2018-06-18T21:02:40.150Z,15.97
2018-06-18T21:05:09.395Z,15.97
2018-06-18T21:07:37.997Z,15.97
2018-06-18T21:10:06.834Z,15.96
2018-06-18T21:12:37.108Z,15.97
2018-06-18T21:15:06.352Z,15.93
2018-06-18T21:17:34.994Z,15.92
2018-06-18T21:20:03.618Z,15.90
2018-06-18T21:22:32.183Z,15.91
2018-06-18T21:25:00.842Z,15.88
2018-06-18T21:27:29.424Z,15.87
2018-06-18T21:29:58.114Z,15.82
2018-06-18T21:32:26.898Z,15.84
2018-06-18T21:34:55.411Z,15.81
2018-06-18T21:37:24.006Z,15.81
2018-06-18T21:39:52.647Z,15.78
2018-06-18T21:42:21.238Z,15.70
2018-06-18T21:44:55.858Z,15.73
2018-06-18T21:47:24.539Z,15.70
2018-06-18T21:49:53.174Z,15.63
2018-06-18T21:52:21.682Z,15.60
2018-06-18T21:54:50.198Z,15.55
2018-06-18T21:57:18.872Z,15.51
2018-06-18T21:59:47.556Z,15.50
2018-06-18T22:02:16.742Z,15.52
2018-06-18T22:04:45.438Z,15.51
2018-06-18T22:07:14.123Z,15.49
2018-06-18T22:09:43.533Z,15.45
2018-06-18T22:12:12.150Z,15.46
2018-06-18T22:14:40.667Z,15.47
2018-06-18T22:17:10.114Z,15.45
2018-06-18T22:19:38.727Z,15.19
2018-06-18T22:22:07.466Z,15.44
2018-06-18T22:24:38.122Z,15.42
2018-06-18T22:27:06.678Z,15.40
2018-06-18T22:29:35.302Z,15.38
2018-06-18T22:32:03.798Z,15.36
2018-06-18T22:34:32.425Z,15.34
2018-06-18T22:37:01.101Z,15.32
2018-06-18T22:39:29.702Z,15.26
2018-06-18T22:41:58.324Z,15.26
2018-06-18T22:44:26.852Z,15.23
2018-06-18T22:46:55.442Z,15.22
2018-06-18T22:49:24.070Z,15.20
2018-06-18T22:51:52.710Z,15.16
2018-06-18T22:54:21.231Z,15.13
2018-06-18T22:56:49.877Z,15.10
2018-06-18T22:59:18.422Z,15.07
2018-06-18T23:01:47.145Z,15.11
2018-06-18T23:04:15.769Z,15.11
2018-06-18T23:06:44.319Z,15.08
2018-06-18T23:09:12.999Z,15.02
2018-06-18T23:11:41.683Z,15.05
2018-06-18T23:14:16.510Z,15.05
2018-06-18T23:16:45.096Z,15.05
2018-06-18T23:19:13.614Z,14.95
2018-06-18T23:21:42.222Z,14.94
2018-06-18T23:24:10.945Z,14.91
2018-06-18T23:26:39.637Z,14.86
2018-06-18T23:29:10.372Z,14.83
2018-06-18T23:31:38.910Z,14.80
2018-06-18T23:34:07.529Z,14.72
2018-06-18T23:36:36.154Z,14.70
2018-06-18T23:39:06.619Z,14.64
2018-06-18T23:41:36.183Z,14.58
2018-06-18T23:44:04.833Z,14.50
2018-06-18T23:46:33.542Z,14.46
2018-06-18T23:49:02.107Z,14.44
2018-06-18T23:51:30.784Z,14.44
2018-06-18T23:53:59.469Z,14.41
2018-06-18T23:56:28.103Z,14.37
2018-06-18T23:58:56.686Z,14.36
